Detalii statie AGRALMIXT [00001CED]

Toti senzorii

Date Temperatura solului [C]Precipitatii [mm]Voltaj baterie [mV]Leaf Wetness [Min]HC Air temperature [C]HC Relative humidity [%]Punctul de roua [C]
medieminmaxsumaultimatimpmedieminmaxmediemediemin
2018-06-20 10:00:00 0 7324 28.3 27.18 29.08 66.31 21.2 20.5
2018-06-20 11:00:00 0 7324 29.6 29.16 30.1 62.55 21.5 19.7
2018-06-20 12:00:00 0 7324 28.97 27.42 30.65 60.21 20.3 19.2
2018-06-20 13:00:00 0 7314 30.24 29.34 30.86 55.81 20.2 19
2018-06-20 14:00:00 0 7324 30.69 29.87 31.3 53.27 19.9 18.6
2018-06-20 15:00:00 0 7216 30.74 30.36 31.13 49.15 18.6 17.4
2018-06-20 16:00:00 0 7158 30.28 29.96 30.64 48.06 17.8 16.7
2018-06-20 17:00:00 0 7138 30.15 29.82 30.45 47.35 17.4 16.2
2018-06-20 18:00:00 0 7304 28.75 28.16 29.75 49.81 17 16
2018-06-20 19:00:00 0 6962 27.62 26.43 28.52 54.73 17.4 16.6
2018-06-20 20:00:00 0 6834 25.5 24.71 26.07 59.97 17 16.4
2018-06-20 21:00:00 0 6776 24.21 22.66 24.82 62.3 16.3 16
2018-06-20 22:00:00 0 6756 21.96 21.66 22.68 70.65 16.2 15.9
2018-06-20 23:00:00 0 6756 21.76 20.98 22.92 70.16 15.9 15.5
2018-06-21 00:00:00 0 6748 19.96 19.13 20.72 85.06 17.1 16.5
2018-06-21 01:00:00 0 6738 20.19 19.36 20.64 92.35 18.7 18.1
2018-06-21 02:00:00 0 6738 20.35 20.06 20.7 95.44 19.4 19
2018-06-21 03:00:00 0 6748 19.96 19.75 20.11 99.87 19.8 19.7
2018-06-21 04:00:00 0 6748 19.77 19.65 19.97 100 19.7 19.6
2018-06-21 05:00:00 0 6748 19.84 19.63 20.34 100 19.8 19.6
2018-06-21 06:00:00 0 6884 20.57 20.37 20.97 100 20.5 20.3
2018-06-21 07:00:00 0 7314 22.95 20.78 24.17 89.83 20.9 20.2
2018-06-21 08:00:00 0 7332 25.27 24.38 26.55 69.52 19 17.9
2018-06-21 09:00:00 0 7324 27.53 26.38 28.26 58.58 18.4 17.7
2018-06-21 10:00:00 0 7324 29.07 28.03 29.68 53.41 18.4 17.1
2018-06-21 11:00:00 0 7324 30.04 29.12 30.81 49.43 18 16.6
2018-06-21 12:00:00 0 7324 30.76 30.24 32.12 47.21 18 17.3
2018-06-21 13:00:00 0 7324 30.87 29.84 31.67 48.38 18.4 17.6
2018-06-21 14:00:00 0 7314 30.53 28.5 31.68 49.85 18.6 17.7
2018-06-21 15:00:00 0 7186 31.15 29.25 32.06 49.2 19 18.1
2018-06-21 16:00:00 0 7166 31.29 29.74 32.32 48.52 18.9 17.9
2018-06-21 17:00:00 0 7128 30.3 29.32 31.14 49.44 18.3 17.4
2018-06-21 18:00:00 0 7294 30.42 29.74 30.84 48.48 18.1 17.6
2018-06-21 19:00:00 0 7050 29.39 28.57 30.01 51.67 18.2 17.3
2018-06-21 20:00:00 0 6816 26.53 25.24 28.08 65.31 19.3 19.1
2018-06-21 21:00:00 0 6766 25.26 24.63 25.96 65.47 18.1 17.1
2018-06-21 22:00:00 0.2 6766 23.2 22.42 24.99 72.96 17.8 17.1
2018-06-21 23:00:00 0 6748 21.58 20.8 22.43 81.53 18.1 17.6
2018-06-22 00:00:00 0 6748 20.51 19.98 21.58 89.57 18.6 18.1
2018-06-22 01:00:00 0 6738 19.81 19.55 20.17 94.85 18.8 18.5
2018-06-22 02:00:00 0 6738 18.96 18.62 19.38 97.82 18.4 18.2
2018-06-22 03:00:00 0 6738 18.45 18.16 18.66 99.99 18.3 18.1
2018-06-22 04:00:00 0 6738 17.97 17.48 18.26 100 17.9 17.4
2018-06-22 05:00:00 0 6748 17.43 17.17 17.74 100 17.3 17.1
2018-06-22 06:00:00 0 6922 18.85 17.7 21.14 99.54 18.7 17.7
2018-06-22 07:00:00 0 7342 22.73 21.44 24.45 80.06 18.9 18
2018-06-22 08:00:00 0 7332 25.63 24.16 26.41 67.7 19 18.4
2018-06-22 09:00:00 0 7332 26.68 25.3 28.6 64.43 19.2 18.4